sensor_id;sensor_type;location;lat;lon;timestamp;pressure;altitude;pressure_sealevel;temperature;humidity
24762;BME280;12865;51.934;10.330;2022-12-07T00:01:21;98933.63;;;2.37;100.00
24762;BME280;12865;51.934;10.330;2022-12-07T00:04:11;98926.38;;;2.26;100.00
24762;BME280;12865;51.934;10.330;2022-12-07T00:06:57;98921.22;;;2.25;100.00
24762;BME280;12865;51.934;10.330;2022-12-07T00:09:43;98919.25;;;2.28;100.00
24762;BME280;12865;51.934;10.330;2022-12-07T00:12:28;98907.78;;;2.44;100.00
24762;BME280;12865;51.934;10.330;2022-12-07T00:15:14;98905.41;;;2.39;100.00
24762;BME280;12865;51.934;10.330;2022-12-07T00:18:00;98905.09;;;2.31;100.00
24762;BME280;12865;51.934;10.330;2022-12-07T00:20:45;98901.81;;;2.54;100.00
24762;BME280;12865;51.934;10.330;2022-12-07T00:23:32;98893.47;;;2.48;100.00
24762;BME280;12865;51.934;10.330;2022-12-07T00:26:20;98892.34;;;2.52;100.00
24762;BME280;12865;51.934;10.330;2022-12-07T00:29:12;98903.06;;;2.49;100.00
24762;BME280;12865;51.934;10.330;2022-12-07T00:31:58;98894.16;;;2.51;100.00
24762;BME280;12865;51.934;10.330;2022-12-07T00:34:44;98888.88;;;2.51;100.00
24762;BME280;12865;51.934;10.330;2022-12-07T00:37:30;98901.28;;;2.49;100.00
24762;BME280;12865;51.934;10.330;2022-12-07T00:40:15;98891.06;;;2.45;100.00
24762;BME280;12865;51.934;10.330;2022-12-07T00:43:01;98878.81;;;2.58;100.00
24762;BME280;12865;51.934;10.330;2022-12-07T00:45:47;98878.53;;;2.48;100.00
24762;BME280;12865;51.934;10.330;2022-12-07T00:48:33;98879.28;;;2.50;100.00
24762;BME280;12865;51.934;10.330;2022-12-07T00:51:21;98876.84;;;2.47;100.00
24762;BME280;12865;51.934;10.330;2022-12-07T00:54:07;98879.88;;;2.41;100.00
24762;BME280;12865;51.934;10.330;2022-12-07T00:56:53;98881.47;;;2.44;100.00
24762;BME280;12865;51.934;10.330;2022-12-07T00:59:38;98885.97;;;2.42;100.00
24762;BME280;12865;51.934;10.330;2022-12-07T01:02:24;98888.59;;;2.42;100.00
24762;BME280;12865;51.934;10.330;2022-12-07T01:05:10;98896.59;;;2.40;100.00
24762;BME280;12865;51.934;10.330;2022-12-07T01:07:55;98885.41;;;2.51;100.00
24762;BME280;12865;51.934;10.330;2022-12-07T01:10:41;98881.47;;;2.44;100.00
24762;BME280;12865;51.934;10.330;2022-12-07T01:13:27;98887.09;;;2.52;100.00
24762;BME280;12865;51.934;10.330;2022-12-07T01:16:15;98882.69;;;2.52;100.00
24762;BME280;12865;51.934;10.330;2022-12-07T01:19:02;98880.53;;;2.45;100.00
24762;BME280;12865;51.934;10.330;2022-12-07T01:21:49;98868.22;;;2.45;100.00
24762;BME280;12865;51.934;10.330;2022-12-07T01:24:35;98863.78;;;2.46;100.00
24762;BME280;12865;51.934;10.330;2022-12-07T01:27:21;98863.53;;;2.36;100.00
24762;BME280;12865;51.934;10.330;2022-12-07T01:30:07;98865.97;;;2.39;100.00
24762;BME280;12865;51.934;10.330;2022-12-07T01:32:53;98863.41;;;2.52;100.00
24762;BME280;12865;51.934;10.330;2022-12-07T01:35:40;98858.44;;;2.47;100.00
24762;BME280;12865;51.934;10.330;2022-12-07T01:38:25;98868.72;;;2.38;100.00
24762;BME280;12865;51.934;10.330;2022-12-07T01:41:11;98870.94;;;2.44;100.00
24762;BME280;12865;51.934;10.330;2022-12-07T01:47:03;98866.31;;;2.47;100.00
24762;BME280;12865;51.934;10.330;2022-12-07T01:49:49;98864.75;;;2.45;100.00
24762;BME280;12865;51.934;10.330;2022-12-07T01:52:35;98855.81;;;2.47;100.00
24762;BME280;12865;51.934;10.330;2022-12-07T01:55:22;98865.59;;;2.45;100.00
24762;BME280;12865;51.934;10.330;2022-12-07T01:58:11;98845.09;;;2.50;100.00
24762;BME280;12865;51.934;10.330;2022-12-07T02:00:58;98854.00;;;2.48;100.00
24762;BME280;12865;51.934;10.330;2022-12-07T02:03:45;98852.22;;;2.48;100.00
24762;BME280;12865;51.934;10.330;2022-12-07T02:06:31;98844.44;;;2.47;100.00
24762;BME280;12865;51.934;10.330;2022-12-07T02:09:17;98845.59;;;2.43;100.00
24762;BME280;12865;51.934;10.330;2022-12-07T02:12:03;98834.97;;;2.44;100.00
24762;BME280;12865;51.934;10.330;2022-12-07T02:14:50;98834.47;;;2.52;100.00
24762;BME280;12865;51.934;10.330;2022-12-07T02:17:44;98835.97;;;2.56;100.00
24762;BME280;12865;51.934;10.330;2022-12-07T02:23:47;98826.78;;;2.49;100.00
24762;BME280;12865;51.934;10.330;2022-12-07T02:30:04;98834.47;;;2.52;100.00
24762;BME280;12865;51.934;10.330;2022-12-07T02:33:11;98831.50;;;2.44;100.00
24762;BME280;12865;51.934;10.330;2022-12-07T02:36:27;98827.94;;;2.45;100.00
24762;BME280;12865;51.934;10.330;2022-12-07T02:39:22;98817.19;;;2.48;100.00
24762;BME280;12865;51.934;10.330;2022-12-07T02:42:26;98816.91;;;2.52;100.00
24762;BME280;12865;51.934;10.330;2022-12-07T02:45:16;98809.28;;;2.48;100.00
24762;BME280;12865;51.934;10.330;2022-12-07T02:48:05;98811.47;;;2.41;100.00
24762;BME280;12865;51.934;10.330;2022-12-07T02:50:53;98816.66;;;2.43;100.00
24762;BME280;12865;51.934;10.330;2022-12-07T02:53:43;98817.78;;;2.38;100.00
24762;BME280;12865;51.934;10.330;2022-12-07T02:59:40;98805.19;;;2.44;100.00
24762;BME280;12865;51.934;10.330;2022-12-07T03:05:31;98803.44;;;2.57;100.00
24762;BME280;12865;51.934;10.330;2022-12-07T03:11:41;98800.50;;;2.34;100.00
24762;BME280;12865;51.934;10.330;2022-12-07T03:14:34;98807.25;;;2.38;100.00
24762;BME280;12865;51.934;10.330;2022-12-07T03:17:26;98811.03;;;2.34;100.00
24762;BME280;12865;51.934;10.330;2022-12-07T03:20:16;98813.81;;;2.46;100.00
24762;BME280;12865;51.934;10.330;2022-12-07T03:23:05;98810.53;;;2.42;100.00
24762;BME280;12865;51.934;10.330;2022-12-07T03:25:57;98809.16;;;2.36;100.00
24762;BME280;12865;51.934;10.330;2022-12-07T03:28:50;98808.31;;;2.36;100.00
24762;BME280;12865;51.934;10.330;2022-12-07T03:31:43;98803.91;;;2.36;100.00
24762;BME280;12865;51.934;10.330;2022-12-07T03:34:36;98799.56;;;2.35;100.00
24762;BME280;12865;51.934;10.330;2022-12-07T03:37:47;98794.75;;;2.42;100.00
24762;BME280;12865;51.934;10.330;2022-12-07T03:40:40;98793.50;;;2.48;100.00
24762;BME280;12865;51.934;10.330;2022-12-07T03:43:30;98799.94;;;2.44;100.00
24762;BME280;12865;51.934;10.330;2022-12-07T03:46:44;98785.22;;;2.54;100.00
24762;BME280;12865;51.934;10.330;2022-12-07T03:55:29;98787.91;;;2.40;100.00
24762;BME280;12865;51.934;10.330;2022-12-07T03:58:19;98789.50;;;2.42;100.00
24762;BME280;12865;51.934;10.330;2022-12-07T04:01:05;98784.00;;;2.59;100.00
24762;BME280;12865;51.934;10.330;2022-12-07T04:03:51;98789.63;;;2.53;100.00
24762;BME280;12865;51.934;10.330;2022-12-07T04:06:37;98799.13;;;2.56;100.00
24762;BME280;12865;51.934;10.330;2022-12-07T04:09:22;98800.50;;;2.61;100.00
24762;BME280;12865;51.934;10.330;2022-12-07T04:12:08;98795.91;;;2.65;100.00
24762;BME280;12865;51.934;10.330;2022-12-07T04:14:54;98788.00;;;2.65;100.00
24762;BME280;12865;51.934;10.330;2022-12-07T04:17:40;98796.25;;;2.73;100.00
24762;BME280;12865;51.934;10.330;2022-12-07T04:20:25;98790.41;;;2.68;100.00
24762;BME280;12865;51.934;10.330;2022-12-07T04:23:11;98795.59;;;2.69;100.00
24762;BME280;12865;51.934;10.330;2022-12-07T04:25:57;98790.41;;;2.68;100.00
24762;BME280;12865;51.934;10.330;2022-12-07T04:28:42;98784.97;;;2.71;100.00
24762;BME280;12865;51.934;10.330;2022-12-07T04:31:28;98786.34;;;2.76;100.00
24762;BME280;12865;51.934;10.330;2022-12-07T04:34:14;98788.22;;;2.74;100.00
24762;BME280;12865;51.934;10.330;2022-12-07T04:37:00;98786.66;;;2.72;100.00
24762;BME280;12865;51.934;10.330;2022-12-07T04:39:45;98777.81;;;2.73;100.00
24762;BME280;12865;51.934;10.330;2022-12-07T04:42:31;98787.78;;;2.68;100.00
24762;BME280;12865;51.934;10.330;2022-12-07T04:45:17;98792.44;;;2.77;100.00
24762;BME280;12865;51.934;10.330;2022-12-07T04:48:03;98787.19;;;2.77;100.00
24762;BME280;12865;51.934;10.330;2022-12-07T04:50:48;98793.38;;;2.76;100.00
24762;BME280;12865;51.934;10.330;2022-12-07T04:53:37;98784.66;;;2.88;100.00
24762;BME280;12865;51.934;10.330;2022-12-07T04:56:24;98789.13;;;3.00;100.00
24762;BME280;12865;51.934;10.330;2022-12-07T04:59:14;98791.22;;;2.95;100.00
24762;BME280;12865;51.934;10.330;2022-12-07T05:02:00;98783.44;;;3.06;100.00
24762;BME280;12865;51.934;10.330;2022-12-07T05:04:46;98777.75;;;3.00;100.00
24762;BME280;12865;51.934;10.330;2022-12-07T05:07:31;98775.75;;;3.03;100.00
24762;BME280;12865;51.934;10.330;2022-12-07T05:10:17;98773.97;;;3.04;100.00
24762;BME280;12865;51.934;10.330;2022-12-07T05:13:03;98767.66;;;3.06;100.00
24762;BME280;12865;51.934;10.330;2022-12-07T05:15:49;98765.22;;;3.03;100.00
24762;BME280;12865;51.934;10.330;2022-12-07T05:18:34;98769.94;;;2.98;100.00
24762;BME280;12865;51.934;10.330;2022-12-07T05:21:20;98771.66;;;2.99;100.00
24762;BME280;12865;51.934;10.330;2022-12-07T05:24:07;98774.56;;;2.95;100.00
24762;BME280;12865;51.934;10.330;2022-12-07T05:26:53;98770.28;;;2.94;100.00
24762;BME280;12865;51.934;10.330;2022-12-07T05:29:39;98777.44;;;2.92;100.00
24762;BME280;12865;51.934;10.330;2022-12-07T05:32:24;98773.94;;;2.91;100.00
24762;BME280;12865;51.934;10.330;2022-12-07T05:35:10;98767.66;;;2.94;100.00
24762;BME280;12865;51.934;10.330;2022-12-07T05:37:56;98756.59;;;3.01;100.00
24762;BME280;12865;51.934;10.330;2022-12-07T05:40:42;98765.53;;;2.86;100.00
24762;BME280;12865;51.934;10.330;2022-12-07T05:43:28;98765.94;;;2.93;100.00
24762;BME280;12865;51.934;10.330;2022-12-07T05:46:14;98767.00;;;3.03;100.00
24762;BME280;12865;51.934;10.330;2022-12-07T05:49:00;98764.16;;;2.93;100.00
24762;BME280;12865;51.934;10.330;2022-12-07T05:51:47;98764.16;;;2.93;100.00
24762;BME280;12865;51.934;10.330;2022-12-07T05:54:33;98765.94;;;2.93;100.00
24762;BME280;12865;51.934;10.330;2022-12-07T05:57:19;98765.94;;;2.93;100.00
24762;BME280;12865;51.934;10.330;2022-12-07T06:00:05;98768.50;;;2.94;100.00
24762;BME280;12865;51.934;10.330;2022-12-07T06:02:51;98759.31;;;2.87;100.00
24762;BME280;12865;51.934;10.330;2022-12-07T06:05:36;98760.13;;;2.88;100.00
24762;BME280;12865;51.934;10.330;2022-12-07T06:08:22;98763.22;;;2.94;100.00
24762;BME280;12865;51.934;10.330;2022-12-07T06:11:08;98761.38;;;2.82;100.00
24762;BME280;12865;51.934;10.330;2022-12-07T06:14:12;98762.47;;;2.92;100.00
24762;BME280;12865;51.934;10.330;2022-12-07T06:16:58;98762.91;;;2.99;100.00
24762;BME280;12865;51.934;10.330;2022-12-07T06:19:44;98766.38;;;2.99;100.00
24762;BME280;12865;51.934;10.330;2022-12-07T06:22:29;98766.16;;;2.90;100.00
24762;BME280;12865;51.934;10.330;2022-12-07T06:25:15;98765.84;;;2.94;100.00
24762;BME280;12865;51.934;10.330;2022-12-07T06:28:01;98760.19;;;3.00;100.00
24762;BME280;12865;51.934;10.330;2022-12-07T06:30:47;98760.19;;;3.00;100.00
24762;BME280;12865;51.934;10.330;2022-12-07T06:33:32;98758.47;;;2.99;100.00
24762;BME280;12865;51.934;10.330;2022-12-07T06:36:18;98756.78;;;2.98;100.00
24762;BME280;12865;51.934;10.330;2022-12-07T06:39:05;98758.47;;;2.99;100.00
24762;BME280;12865;51.934;10.330;2022-12-07T06:41:51;98764.69;;;2.98;100.00
24762;BME280;12865;51.934;10.330;2022-12-07T06:44:37;98761.88;;;3.01;100.00
24762;BME280;12865;51.934;10.330;2022-12-07T06:47:23;98762.06;;;2.98;100.00
24762;BME280;12865;51.934;10.330;2022-12-07T06:50:09;98765.94;;;2.93;100.00
24762;BME280;12865;51.934;10.330;2022-12-07T06:52:54;98768.16;;;2.99;100.00
24762;BME280;12865;51.934;10.330;2022-12-07T06:55:41;98776.81;;;3.01;100.00
24762;BME280;12865;51.934;10.330;2022-12-07T06:58:27;98775.31;;;3.09;100.00
24762;BME280;12865;51.934;10.330;2022-12-07T07:01:15;98770.06;;;3.09;100.00
24762;BME280;12865;51.934;10.330;2022-12-07T07:04:01;98771.00;;;3.08;100.00
24762;BME280;12865;51.934;10.330;2022-12-07T07:06:47;98780.19;;;3.15;100.00
24762;BME280;12865;51.934;10.330;2022-12-07T07:09:33;98773.00;;;3.05;100.00
24762;BME280;12865;51.934;10.330;2022-12-07T07:12:19;98772.50;;;3.12;100.00
24762;BME280;12865;51.934;10.330;2022-12-07T07:15:05;98774.09;;;3.15;100.00
24762;BME280;12865;51.934;10.330;2022-12-07T07:17:50;98774.09;;;3.28;100.00
24762;BME280;12865;51.934;10.330;2022-12-07T07:20:36;98776.59;;;3.16;100.00
24762;BME280;12865;51.934;10.330;2022-12-07T07:23:22;98784.06;;;3.10;100.00
24762;BME280;12865;51.934;10.330;2022-12-07T07:26:08;98787.66;;;3.09;100.00
24762;BME280;12865;51.934;10.330;2022-12-07T07:28:54;98789.03;;;3.14;100.00
24762;BME280;12865;51.934;10.330;2022-12-07T07:31:39;98787.78;;;3.07;100.00
24762;BME280;12865;51.934;10.330;2022-12-07T07:34:25;98783.88;;;3.00;100.00
24762;BME280;12865;51.934;10.330;2022-12-07T07:37:11;98779.84;;;2.95;100.00
24762;BME280;12865;51.934;10.330;2022-12-07T07:39:58;98791.34;;;2.94;100.00
24762;BME280;12865;51.934;10.330;2022-12-07T07:42:43;98791.72;;;2.88;100.00
24762;BME280;12865;51.934;10.330;2022-12-07T07:45:29;98786.69;;;2.97;100.00
24762;BME280;12865;51.934;10.330;2022-12-07T07:48:15;98784.22;;;2.82;100.00
24762;BME280;12865;51.934;10.330;2022-12-07T07:51:05;98782.66;;;2.79;100.00
24762;BME280;12865;51.934;10.330;2022-12-07T07:53:51;98789.31;;;2.85;100.00
24762;BME280;12865;51.934;10.330;2022-12-07T07:56:36;98801.78;;;2.68;100.00
24762;BME280;12865;51.934;10.330;2022-12-07T07:59:22;98790.22;;;2.71;100.00
24762;BME280;12865;51.934;10.330;2022-12-07T08:02:19;98805.06;;;2.72;100.00
24762;BME280;12865;51.934;10.330;2022-12-07T08:05:05;98799.81;;;2.72;100.00
24762;BME280;12865;51.934;10.330;2022-12-07T08:07:51;98804.50;;;2.67;100.00
24762;BME280;12865;51.934;10.330;2022-12-07T08:10:36;98814.16;;;2.54;100.00
24762;BME280;12865;51.934;10.330;2022-12-07T08:13:22;98808.78;;;2.55;100.00
24762;BME280;12865;51.934;10.330;2022-12-07T08:16:10;98813.56;;;2.63;100.00
24762;BME280;12865;51.934;10.330;2022-12-07T08:18:56;98812.03;;;2.73;100.00
24762;BME280;12865;51.934;10.330;2022-12-07T08:21:42;98813.31;;;2.80;100.00
24762;BME280;12865;51.934;10.330;2022-12-07T08:24:27;98816.13;;;2.77;100.00
24762;BME280;12865;51.934;10.330;2022-12-07T08:27:13;98806.53;;;2.76;100.00
24762;BME280;12865;51.934;10.330;2022-12-07T08:29:59;98805.28;;;2.82;100.00
24762;BME280;12865;51.934;10.330;2022-12-07T08:32:45;98806.88;;;2.84;100.00
24762;BME280;12865;51.934;10.330;2022-12-07T08:35:33;98812.06;;;2.86;100.00
24762;BME280;12865;51.934;10.330;2022-12-07T08:38:19;98810.16;;;2.88;100.00
24762;BME280;12865;51.934;10.330;2022-12-07T08:41:06;98805.66;;;3.02;100.00
24762;BME280;12865;51.934;10.330;2022-12-07T08:43:52;98807.16;;;3.06;100.00
24762;BME280;12865;51.934;10.330;2022-12-07T08:46:59;98808.63;;;3.10;100.00
24762;BME280;12865;51.934;10.330;2022-12-07T08:49:50;98811.91;;;3.14;100.00
24762;BME280;12865;51.934;10.330;2022-12-07T08:52:37;98804.41;;;3.08;100.00
24762;BME280;12865;51.934;10.330;2022-12-07T08:55:23;98805.22;;;3.08;100.00
24762;BME280;12865;51.934;10.330;2022-12-07T08:58:09;98811.16;;;3.12;100.00
24762;BME280;12865;51.934;10.330;2022-12-07T09:00:54;98810.41;;;3.10;100.00
24762;BME280;12865;51.934;10.330;2022-12-07T09:03:40;98807.59;;;3.13;100.00
24762;BME280;12865;51.934;10.330;2022-12-07T09:06:27;98813.38;;;3.18;100.00
24762;BME280;12865;51.934;10.330;2022-12-07T09:09:13;98810.97;;;3.28;100.00
24762;BME280;12865;51.934;10.330;2022-12-07T09:11:59;98814.44;;;3.28;100.00
24762;BME280;12865;51.934;10.330;2022-12-07T09:14:45;98822.22;;;3.30;100.00
24762;BME280;12865;51.934;10.330;2022-12-07T09:17:34;98824.25;;;3.26;100.00
24762;BME280;12865;51.934;10.330;2022-12-07T09:20:21;98825.69;;;3.30;100.00
24762;BME280;12865;51.934;10.330;2022-12-07T09:23:07;98814.31;;;3.30;100.00
24762;BME280;12865;51.934;10.330;2022-12-07T09:25:53;98822.03;;;3.33;100.00
24762;BME280;12865;51.934;10.330;2022-12-07T09:28:39;98820.25;;;3.33;100.00
24762;BME280;12865;51.934;10.330;2022-12-07T09:31:25;98817.69;;;3.32;100.00
24762;BME280;12865;51.934;10.330;2022-12-07T09:34:11;98822.78;;;3.35;100.00
24762;BME280;12865;51.934;10.330;2022-12-07T09:36:57;98815.28;;;3.29;100.00
24762;BME280;12865;51.934;10.330;2022-12-07T09:39:43;98810.53;;;3.34;100.00
24762;BME280;12865;51.934;10.330;2022-12-07T09:42:41;98819.06;;;3.37;100.00
24762;BME280;12865;51.934;10.330;2022-12-07T09:45:34;98814.97;;;3.46;100.00
24762;BME280;12865;51.934;10.330;2022-12-07T09:48:24;98807.38;;;3.41;100.00
24762;BME280;12865;51.934;10.330;2022-12-07T09:51:21;98808.94;;;3.44;100.00
24762;BME280;12865;51.934;10.330;2022-12-07T09:54:09;98811.81;;;3.41;100.00
24762;BME280;12865;51.934;10.330;2022-12-07T09:56:58;98819.81;;;3.39;100.00
24762;BME280;12865;51.934;10.330;2022-12-07T09:59:44;98809.94;;;3.43;100.00
24762;BME280;12865;51.934;10.330;2022-12-07T10:02:38;98805.50;;;3.43;100.00
24762;BME280;12865;51.934;10.330;2022-12-07T10:05:30;98797.69;;;3.42;100.00
24762;BME280;12865;51.934;10.330;2022-12-07T10:08:19;98803.38;;;3.36;100.00
24762;BME280;12865;51.934;10.330;2022-12-07T10:11:05;98793.78;;;3.35;100.00
24762;BME280;12865;51.934;10.330;2022-12-07T10:14:11;98801.69;;;3.35;100.00
24762;BME280;12865;51.934;10.330;2022-12-07T10:16:57;98792.84;;;3.36;100.00
24762;BME280;12865;51.934;10.330;2022-12-07T10:19:43;98800.84;;;3.34;100.00
24762;BME280;12865;51.934;10.330;2022-12-07T10:22:28;98807.91;;;3.34;100.00
24762;BME280;12865;51.934;10.330;2022-12-07T10:25:19;98791.78;;;3.38;100.00
24762;BME280;12865;51.934;10.330;2022-12-07T10:31:01;98807.16;;;3.32;100.00
24762;BME280;12865;51.934;10.330;2022-12-07T10:33:54;98796.44;;;3.35;100.00
24762;BME280;12865;51.934;10.330;2022-12-07T10:36:40;98792.00;;;3.35;100.00
24762;BME280;12865;51.934;10.330;2022-12-07T10:39:26;98797.56;;;3.31;100.00
24762;BME280;12865;51.934;10.330;2022-12-07T10:42:18;98794.75;;;3.34;100.00
24762;BME280;12865;51.934;10.330;2022-12-07T10:45:14;98793.06;;;3.33;100.00
24762;BME280;12865;51.934;10.330;2022-12-07T10:52:08;98790.13;;;3.50;100.00
24762;BME280;12865;51.934;10.330;2022-12-07T10:54:32;98790.41;;;3.45;100.00
24762;BME280;12865;51.934;10.330;2022-12-07T11:00:25;98784.63;;;3.40;100.00
24762;BME280;12865;51.934;10.330;2022-12-07T11:17:08;98769.13;;;3.48;100.00
24762;BME280;12865;51.934;10.330;2022-12-07T11:22:55;98776.38;;;3.45;100.00
24762;BME280;12865;51.934;10.330;2022-12-07T11:25:49;98776.63;;;3.42;100.00
24762;BME280;12865;51.934;10.330;2022-12-07T11:32:04;98775.25;;;3.36;100.00
24762;BME280;12865;51.934;10.330;2022-12-07T11:37:51;98778.50;;;3.40;100.00
24762;BME280;12865;51.934;10.330;2022-12-07T11:40:43;98780.53;;;3.36;100.00
24762;BME280;12865;51.934;10.330;2022-12-07T11:43:34;98774.50;;;3.34;100.00
24762;BME280;12865;51.934;10.330;2022-12-07T11:47:10;98772.06;;;3.31;100.00
24762;BME280;12865;51.934;10.330;2022-12-07T11:58:38;98766.09;;;3.42;100.00
24762;BME280;12865;51.934;10.330;2022-12-07T12:04:33;98770.06;;;3.47;100.00
24762;BME280;12865;51.934;10.330;2022-12-07T12:07:24;98754.38;;;3.33;100.00
24762;BME280;12865;51.934;10.330;2022-12-07T12:13:52;98744.06;;;3.43;100.00
24762;BME280;12865;51.934;10.330;2022-12-07T12:20:13;98735.94;;;3.46;100.00
24762;BME280;12865;51.934;10.330;2022-12-07T12:23:07;98732.53;;;3.44;100.00
24762;BME280;12865;51.934;10.330;2022-12-07T12:25:59;98728.13;;;3.44;100.00
24762;BME280;12865;51.934;10.330;2022-12-07T12:28:58;98738.22;;;3.50;100.00
24762;BME280;12865;51.934;10.330;2022-12-07T12:31:46;98733.28;;;3.46;100.00
24762;BME280;12865;51.934;10.330;2022-12-07T12:34:39;98723.25;;;3.51;100.00
24762;BME280;12865;51.934;10.330;2022-12-07T12:55:15;98723.16;;;3.52;100.00
24762;BME280;12865;51.934;10.330;2022-12-07T13:04:47;98712.50;;;3.54;100.00
24762;BME280;12865;51.934;10.330;2022-12-07T13:10:35;98707.34;;;3.52;100.00
24762;BME280;12865;51.934;10.330;2022-12-07T13:18:53;98705.66;;;3.64;100.00
24762;BME280;12865;51.934;10.330;2022-12-07T13:21:43;98705.44;;;3.54;100.00
24762;BME280;12865;51.934;10.330;2022-12-07T13:24:31;98697.22;;;3.59;100.00
24762;BME280;12865;51.934;10.330;2022-12-07T13:27:18;98702.13;;;3.76;100.00
24762;BME280;12865;51.934;10.330;2022-12-07T13:30:14;98700.56;;;3.74;100.00
24762;BME280;12865;51.934;10.330;2022-12-07T13:33:03;98703.97;;;3.63;100.00
24762;BME280;12865;51.934;10.330;2022-12-07T13:35:53;98690.56;;;3.66;100.00
24762;BME280;12865;51.934;10.330;2022-12-07T13:38:49;98698.00;;;3.72;100.00
24762;BME280;12865;51.934;10.330;2022-12-07T13:41:34;98699.00;;;3.71;100.00
24762;BME280;12865;51.934;10.330;2022-12-07T13:44:21;98704.47;;;3.68;100.00
24762;BME280;12865;51.934;10.330;2022-12-07T13:47:58;98697.84;;;3.63;100.00
24762;BME280;12865;51.934;10.330;2022-12-07T13:53:12;98696.22;;;3.73;100.00
24762;BME280;12865;51.934;10.330;2022-12-07T13:55:59;98695.22;;;3.63;100.00
24762;BME280;12865;51.934;10.330;2022-12-07T13:58:45;98689.41;;;3.58;100.00
24762;BME280;12865;51.934;10.330;2022-12-07T14:01:31;98691.00;;;3.60;100.00
24762;BME280;12865;51.934;10.330;2022-12-07T14:04:34;98692.91;;;3.45;100.00
24762;BME280;12865;51.934;10.330;2022-12-07T14:07:26;98684.47;;;3.53;100.00
24762;BME280;12865;51.934;10.330;2022-12-07T14:10:35;98685.13;;;3.57;100.00
24762;BME280;12865;51.934;10.330;2022-12-07T14:19:40;98684.91;;;3.47;100.00
24762;BME280;12865;51.934;10.330;2022-12-07T14:22:33;98686.19;;;3.41;100.00
24762;BME280;12865;51.934;10.330;2022-12-07T14:25:24;98684.91;;;3.47;100.00
24762;BME280;12865;51.934;10.330;2022-12-07T14:28:29;98690.00;;;3.25;100.00
24762;BME280;12865;51.934;10.330;2022-12-07T14:31:18;98687.38;;;3.25;100.00
24762;BME280;12865;51.934;10.330;2022-12-07T14:34:11;98685.91;;;3.21;100.00
24762;BME280;12865;51.934;10.330;2022-12-07T14:36:57;98686.94;;;3.18;100.00
24762;BME280;12865;51.934;10.330;2022-12-07T14:39:43;98687.59;;;3.22;100.00
24762;BME280;12865;51.934;10.330;2022-12-07T14:42:30;98681.16;;;3.13;100.00
24762;BME280;12865;51.934;10.330;2022-12-07T14:45:19;98683.28;;;3.21;100.00
24762;BME280;12865;51.934;10.330;2022-12-07T14:48:05;98682.22;;;3.10;100.00
24762;BME280;12865;51.934;10.330;2022-12-07T14:50:52;98681.06;;;3.14;100.00
24762;BME280;12865;51.934;10.330;2022-12-07T14:53:42;98683.28;;;3.21;100.00
24762;BME280;12865;51.934;10.330;2022-12-07T14:56:29;98681.38;;;3.10;100.00
24762;BME280;12865;51.934;10.330;2022-12-07T14:59:16;98680.41;;;3.24;100.00
24762;BME280;12865;51.934;10.330;2022-12-07T15:02:02;98679.06;;;3.05;100.00
24762;BME280;12865;51.934;10.330;2022-12-07T15:04:48;98681.19;;;3.00;100.00
24762;BME280;12865;51.934;10.330;2022-12-07T15:07:34;98685.78;;;3.09;100.00
24762;BME280;12865;51.934;10.330;2022-12-07T15:10:25;98683.50;;;3.05;100.00
24762;BME280;12865;51.934;10.330;2022-12-07T15:13:18;98679.06;;;3.05;100.00
24762;BME280;12865;51.934;10.330;2022-12-07T15:16:22;98684.53;;;3.02;100.00
24762;BME280;12865;51.934;10.330;2022-12-07T15:19:19;98685.09;;;3.07;100.00
24762;BME280;12865;51.934;10.330;2022-12-07T15:22:05;98687.28;;;3.01;100.00
24762;BME280;12865;51.934;10.330;2022-12-07T15:24:51;98678.75;;;2.97;100.00
24762;BME280;12865;51.934;10.330;2022-12-07T15:27:36;98680.13;;;3.03;100.00
24762;BME280;12865;51.934;10.330;2022-12-07T15:30:22;98674.00;;;3.02;100.00
24762;BME280;12865;51.934;10.330;2022-12-07T15:33:09;98682.03;;;3.13;100.00
24762;BME280;12865;51.934;10.330;2022-12-07T15:35:55;98678.31;;;3.03;100.00
24762;BME280;12865;51.934;10.330;2022-12-07T15:38:41;98679.50;;;2.99;100.00
24762;BME280;12865;51.934;10.330;2022-12-07T15:41:27;98680.94;;;3.03;100.00
24762;BME280;12865;51.934;10.330;2022-12-07T15:44:13;98676.22;;;2.96;100.00
24762;BME280;12865;51.934;10.330;2022-12-07T15:47:17;98676.94;;;3.10;100.00
24762;BME280;12865;51.934;10.330;2022-12-07T15:50:05;98674.34;;;2.98;100.00
24762;BME280;12865;51.934;10.330;2022-12-07T15:52:52;98675.16;;;2.98;100.00
24762;BME280;12865;51.934;10.330;2022-12-07T15:55:39;98670.75;;;2.99;100.00
24762;BME280;12865;51.934;10.330;2022-12-07T15:58:25;98666.84;;;2.92;100.00
24762;BME280;12865;51.934;10.330;2022-12-07T16:01:18;98672.03;;;2.93;100.00
24762;BME280;12865;51.934;10.330;2022-12-07T16:04:04;98667.88;;;3.02;100.00
24762;BME280;12865;51.934;10.330;2022-12-07T16:06:50;98663.69;;;2.99;100.00
24762;BME280;12865;51.934;10.330;2022-12-07T16:09:36;98671.69;;;2.98;100.00
24762;BME280;12865;51.934;10.330;2022-12-07T16:12:22;98668.44;;;2.94;100.00
24762;BME280;12865;51.934;10.330;2022-12-07T16:15:08;98670.00;;;2.97;100.00
24762;BME280;12865;51.934;10.330;2022-12-07T16:17:54;98672.97;;;2.92;100.00
24762;BME280;12865;51.934;10.330;2022-12-07T16:20:41;98676.34;;;2.94;100.00
24762;BME280;12865;51.934;10.330;2022-12-07T16:23:27;98672.22;;;2.90;100.00
24762;BME280;12865;51.934;10.330;2022-12-07T16:26:16;98664.84;;;2.95;100.00
24762;BME280;12865;51.934;10.330;2022-12-07T16:29:02;98671.19;;;2.93;100.00
24762;BME280;12865;51.934;10.330;2022-12-07T16:31:49;98668.56;;;2.93;100.00
24762;BME280;12865;51.934;10.330;2022-12-07T16:34:35;98678.53;;;2.88;100.00
24762;BME280;12865;51.934;10.330;2022-12-07T16:37:20;98672.88;;;2.94;100.00
24762;BME280;12865;51.934;10.330;2022-12-07T16:40:06;98673.06;;;2.91;100.00